createdAt,value
2023-02-11T00:00:42.782Z,100855.75
2023-02-11T00:03:10.879Z,100863.63
2023-02-11T00:05:39.002Z,100852.34
2023-02-11T00:08:06.976Z,100853.13
2023-02-11T00:10:35.015Z,100846.97
2023-02-11T00:13:03.039Z,100854.00
2023-02-11T00:15:31.036Z,100838.22
2023-02-11T00:18:00.373Z,100837.31
2023-02-11T00:20:28.424Z,100843.34
2023-02-11T00:22:56.427Z,100843.44
2023-02-11T00:25:24.427Z,100830.22
2023-02-11T00:27:52.366Z,100842.47
2023-02-11T00:30:20.390Z,100843.25
2023-02-11T00:32:48.363Z,100847.56
2023-02-11T00:35:17.975Z,100852.75
2023-02-11T00:37:45.920Z,100836.97
2023-02-11T00:40:16.157Z,100848.28
2023-02-11T00:42:44.147Z,100849.97
2023-02-11T00:45:12.136Z,100848.09
2023-02-11T00:47:40.114Z,100845.34
2023-02-11T00:50:08.633Z,100845.63
2023-02-11T00:52:37.954Z,100844.78
2023-02-11T00:55:06.503Z,100836.16
2023-02-11T00:57:34.540Z,100847.38
2023-02-11T01:00:02.601Z,100848.28
2023-02-11T01:02:30.562Z,100848.16
2023-02-11T01:04:59.922Z,100851.75
2023-02-11T01:07:28.136Z,100848.38
2023-02-11T01:09:58.111Z,100846.72
2023-02-11T01:12:26.495Z,100843.19
2023-02-11T01:14:54.515Z,100847.50
2023-02-11T01:17:22.512Z,100850.09
2023-02-11T01:19:50.586Z,100853.56
2023-02-11T01:22:18.616Z,100849.94
2023-02-11T01:24:46.584Z,100850.69
2023-02-11T01:27:16.087Z,100834.13
2023-02-11T01:29:44.023Z,100842.88
2023-02-11T01:32:12.026Z,100845.66
2023-02-11T01:34:40.025Z,100824.88
2023-02-11T01:37:08.077Z,100832.75
2023-02-11T01:39:36.279Z,100828.44
2023-02-11T01:42:04.891Z,100830.13
2023-02-11T01:44:37.918Z,100845.75
2023-02-11T01:47:06.726Z,100837.97
2023-02-11T01:49:37.493Z,100833.66
2023-02-11T01:52:12.002Z,100833.72
2023-02-11T01:55:16.651Z,100841.50
2023-02-11T01:57:48.748Z,100831.06
2023-02-11T02:00:24.360Z,100828.22
2023-02-11T02:02:59.182Z,100839.41
2023-02-11T02:05:34.335Z,100820.09
2023-02-11T02:08:11.040Z,100827.06
2023-02-11T02:10:43.481Z,100838.41
2023-02-11T02:13:12.131Z,100822.78
2023-02-11T02:15:48.625Z,100826.44
2023-02-11T02:18:32.137Z,100829.91
2023-02-11T02:21:32.222Z,100833.44
2023-02-11T02:24:28.875Z,100829.06
2023-02-11T02:27:19.795Z,100822.06
2023-02-11T02:30:12.611Z,100823.81
2023-02-11T02:32:47.833Z,100807.31
2023-02-11T02:35:26.438Z,100772.44
2023-02-11T02:38:02.724Z,100780.44
2023-02-11T02:40:34.487Z,100801.34
2023-02-11T02:43:04.152Z,100794.41
2023-02-11T02:45:32.167Z,100786.59
2023-02-11T02:48:01.550Z,100786.53
2023-02-11T02:50:34.285Z,100783.03
2023-02-11T02:53:19.507Z,100779.63
2023-02-11T02:56:01.306Z,100767.53
2023-02-11T02:58:49.578Z,100759.59
2023-02-11T03:01:27.936Z,100768.28
2023-02-11T03:04:04.290Z,100769.22
2023-02-11T03:06:35.739Z,100768.19
2023-02-11T03:09:11.367Z,100757.78
2023-02-11T03:11:41.079Z,100757.69
2023-02-11T03:14:11.768Z,100744.59
2023-02-11T03:16:41.030Z,100745.53
2023-02-11T03:19:14.635Z,100753.22
2023-02-11T03:21:44.406Z,100761.09
2023-02-11T03:24:18.309Z,100758.22
2023-02-11T03:26:50.888Z,100765.31
2023-02-11T03:29:30.533Z,100758.44
2023-02-11T03:32:05.423Z,100758.44
2023-02-11T03:34:42.712Z,100750.28
2023-02-11T03:37:15.368Z,100752.25
2023-02-11T03:39:48.890Z,100752.09
2023-02-11T03:42:17.975Z,100744.41
2023-02-11T03:44:51.062Z,100735.81
2023-02-11T03:47:23.815Z,100715.81
2023-02-11T03:49:56.636Z,100740.22
2023-02-11T03:52:27.960Z,100729.63
2023-02-11T03:54:59.131Z,100742.75
2023-02-11T03:57:27.265Z,100745.31
2023-02-11T03:59:57.531Z,100746.16
2023-02-11T04:02:28.780Z,100750.56
2023-02-11T04:04:58.526Z,100752.25
2023-02-11T04:07:27.055Z,100749.38
2023-02-11T04:09:55.232Z,100750.22
2023-02-11T04:12:23.555Z,100733.72
2023-02-11T04:14:51.538Z,100737.28
2023-02-11T04:17:19.623Z,100759.19
2023-02-11T04:19:47.572Z,100757.47
2023-02-11T04:22:16.953Z,100744.59
2023-02-11T04:24:45.195Z,100736.69
2023-02-11T04:27:13.236Z,100735.81
2023-02-11T04:29:41.202Z,100729.69
2023-02-11T04:32:09.693Z,100755.84
2023-02-11T04:34:38.189Z,100754.06
2023-02-11T04:37:06.249Z,100760.81
2023-02-11T04:39:35.871Z,100769.34
2023-02-11T04:42:03.930Z,100764.00
2023-02-11T04:44:32.084Z,100778.72
2023-02-11T04:47:00.098Z,100779.59
2023-02-11T04:49:28.061Z,100765.09
2023-02-11T04:51:56.058Z,100781.66
2023-02-11T04:54:24.057Z,100790.38
2023-02-11T04:56:53.423Z,100790.72
2023-02-11T04:59:21.397Z,100802.06
2023-02-11T05:01:49.700Z,100817.84
2023-02-11T05:04:17.866Z,100811.56
2023-02-11T05:06:45.924Z,100810.81
2023-02-11T05:09:14.858Z,100819.75
2023-02-11T05:11:42.961Z,100816.91
2023-02-11T05:14:12.353Z,100815.97
2023-02-11T05:16:40.409Z,100824.31
2023-02-11T05:19:08.482Z,100820.19
2023-02-11T05:21:36.529Z,100826.53
2023-02-11T05:24:04.760Z,100825.63
2023-02-11T05:26:33.655Z,100825.63
2023-02-11T05:29:01.615Z,100830.56
2023-02-11T05:31:30.979Z,100828.88
2023-02-11T05:33:58.925Z,100822.78
2023-02-11T05:36:26.921Z,100816.69
2023-02-11T05:38:54.891Z,100794.34
2023-02-11T05:41:22.964Z,100795.22
2023-02-11T05:43:51.292Z,100788.25
2023-02-11T05:46:19.599Z,100775.38
2023-02-11T05:48:48.937Z,100761.56
2023-02-11T05:51:16.937Z,100766.75
2023-02-11T05:53:44.917Z,100747.69
2023-02-11T05:56:14.682Z,100729.63
2023-02-11T05:58:42.644Z,100743.41
2023-02-11T06:01:10.674Z,100746.84
2023-02-11T06:03:38.697Z,100741.69
2023-02-11T06:06:11.628Z,100751.63
2023-02-11T06:08:39.756Z,100747.22
2023-02-11T06:11:07.952Z,100748.16
2023-02-11T06:13:36.365Z,100740.38
2023-02-11T06:16:04.756Z,100754.34
2023-02-11T06:18:33.693Z,100750.81
2023-02-11T06:21:01.741Z,100749.16
2023-02-11T06:23:31.114Z,100742.31
2023-02-11T06:26:03.222Z,100730.38
2023-02-11T06:28:32.511Z,100716.44
2023-02-11T06:31:06.676Z,100724.22
2023-02-11T06:33:35.286Z,100744.91
2023-02-11T06:36:03.660Z,100751.81
2023-02-11T06:38:33.015Z,100749.38
2023-02-11T06:41:00.984Z,100737.56
2023-02-11T06:43:28.942Z,100750.88
2023-02-11T06:45:57.052Z,100738.59
2023-02-11T06:48:25.310Z,100746.50
2023-02-11T06:50:53.306Z,100737.19
2023-02-11T06:53:21.276Z,100727.69
2023-02-11T06:55:50.956Z,100732.06
2023-02-11T06:58:19.050Z,100741.59
2023-02-11T07:00:47.045Z,100740.50
2023-02-11T07:03:15.086Z,100742.41
2023-02-11T07:05:43.896Z,100746.84
2023-02-11T07:08:11.861Z,100738.94
2023-02-11T07:10:39.901Z,100731.91
2023-02-11T07:13:09.412Z,100725.00
2023-02-11T07:15:38.580Z,100713.94
2023-02-11T07:18:06.615Z,100726.09
2023-02-11T07:20:34.640Z,100734.81
2023-02-11T07:23:02.580Z,100727.19
2023-02-11T07:25:30.585Z,100732.56
2023-02-11T07:27:58.589Z,100743.09
2023-02-11T07:30:27.995Z,100750.78
2023-02-11T07:32:57.286Z,100768.16
2023-02-11T07:35:25.304Z,100771.63
2023-02-11T07:37:53.781Z,100763.00
2023-02-11T07:40:21.977Z,100766.50
2023-02-11T07:42:49.977Z,100764.84
2023-02-11T07:45:18.283Z,100757.03
2023-02-11T07:47:47.655Z,100791.00
2023-02-11T07:50:15.678Z,100792.59
2023-02-11T07:52:43.658Z,100773.75
2023-02-11T07:55:11.701Z,100777.31
2023-02-11T07:57:39.671Z,100790.22
2023-02-11T08:00:08.453Z,100804.00
2023-02-11T08:02:36.416Z,100812.63
2023-02-11T08:05:06.103Z,100804.78
2023-02-11T08:07:34.062Z,100816.00
2023-02-11T08:10:02.063Z,100811.97
2023-02-11T08:12:30.066Z,100807.78
2023-02-11T08:14:58.079Z,100810.34
2023-02-11T08:17:26.048Z,100812.91
2023-02-11T08:19:54.011Z,100799.91
2023-02-11T08:22:23.395Z,100801.75
2023-02-11T08:24:52.465Z,100797.69
2023-02-11T08:27:20.583Z,100803.06
2023-02-11T08:29:48.529Z,100795.84
2023-02-11T08:32:16.593Z,100800.25
2023-02-11T08:34:44.597Z,100799.56
2023-02-11T08:37:12.628Z,100806.63
2023-02-11T08:39:41.979Z,100801.31
2023-02-11T08:42:10.017Z,100802.19
2023-02-11T08:44:38.014Z,100806.56
2023-02-11T08:47:06.140Z,100794.53
2023-02-11T08:49:34.205Z,100798.00
2023-02-11T08:52:04.316Z,100797.16
2023-02-11T08:54:32.695Z,100767.53
2023-02-11T08:57:02.524Z,100807.63
2023-02-11T08:59:30.547Z,100803.25
2023-02-11T09:01:58.931Z,100803.31
2023-02-11T09:04:26.943Z,100806.75
2023-02-11T09:06:54.964Z,100797.13
2023-02-11T09:09:23.040Z,100800.66
2023-02-11T09:11:51.052Z,100798.91
2023-02-11T09:14:23.090Z,100798.03
2023-02-11T09:16:52.050Z,100778.91
2023-02-11T09:19:20.727Z,100797.16
2023-02-11T09:21:48.824Z,100791.09
2023-02-11T09:24:17.003Z,100803.25
2023-02-11T09:26:45.146Z,100793.72
2023-02-11T09:29:13.176Z,100799.84
2023-02-11T09:31:42.658Z,100777.22
2023-02-11T09:34:12.460Z,100792.00
2023-02-11T09:36:41.767Z,100784.16
2023-02-11T09:39:13.202Z,100786.75
2023-02-11T09:42:15.605Z,100800.69
2023-02-11T09:44:46.511Z,100805.06
2023-02-11T09:47:27.064Z,100802.41
2023-02-11T09:50:01.528Z,100777.19
2023-02-11T09:52:38.426Z,100808.50
2023-02-11T09:55:13.841Z,100802.28
2023-02-11T09:57:41.866Z,100793.59
2023-02-11T10:00:22.422Z,100807.56
2023-02-11T10:03:06.348Z,100802.16
2023-02-11T10:05:50.139Z,100789.06
2023-02-11T10:08:25.409Z,100795.09
2023-02-11T10:10:55.524Z,100786.50
2023-02-11T10:13:45.030Z,100791.56
2023-02-11T10:16:26.262Z,100789.91
2023-02-11T10:19:14.115Z,100788.19
2023-02-11T10:21:51.718Z,100788.94
2023-02-11T10:24:20.465Z,100793.84
2023-02-11T10:26:48.479Z,100781.00
2023-02-11T10:29:28.129Z,100798.25
2023-02-11T10:31:58.317Z,100792.28
2023-02-11T10:34:27.845Z,100789.31
2023-02-11T10:36:55.863Z,100795.56
2023-02-11T10:39:27.265Z,100772.16
2023-02-11T10:41:58.295Z,100788.38
2023-02-11T10:44:30.077Z,100784.84
2023-02-11T10:47:01.060Z,100786.34
2023-02-11T10:49:39.305Z,100792.19
2023-02-11T10:52:15.578Z,100773.69
2023-02-11T10:54:43.582Z,100774.75
2023-02-11T10:57:20.418Z,100772.38
2023-02-11T10:59:49.569Z,100764.53
2023-02-11T11:02:25.000Z,100777.38
2023-02-11T11:04:57.622Z,100770.25
2023-02-11T11:07:28.418Z,100758.84
2023-02-11T11:09:59.800Z,100756.09
2023-02-11T11:12:31.378Z,100757.94
2023-02-11T11:15:01.308Z,100754.69
2023-02-11T11:17:30.220Z,100746.97
2023-02-11T11:20:21.086Z,100748.38
2023-02-11T11:22:50.215Z,100741.03
2023-02-11T11:25:26.963Z,100750.63
2023-02-11T11:27:58.944Z,100739.19
2023-02-11T11:30:34.767Z,100740.84
2023-02-11T11:33:03.355Z,100742.44
2023-02-11T11:35:34.215Z,100721.13
2023-02-11T11:38:04.332Z,100734.25
2023-02-11T11:40:33.792Z,100720.69
2023-02-11T11:43:08.372Z,100722.28
2023-02-11T11:45:36.408Z,100719.13
2023-02-11T11:48:12.878Z,100704.72
2023-02-11T11:50:46.172Z,100717.41
2023-02-11T11:53:21.910Z,100701.38
2023-02-11T11:55:57.300Z,100705.00
2023-02-11T11:58:26.754Z,100704.00
2023-02-11T12:01:01.117Z,100700.97
2023-02-11T12:03:56.127Z,100693.00
2023-02-11T12:06:37.570Z,100688.00
2023-02-11T12:09:16.127Z,100690.28
2023-02-11T12:12:03.740Z,100692.00
2023-02-11T12:14:42.455Z,100686.78
2023-02-11T12:17:24.567Z,100676.78
2023-02-11T12:20:13.212Z,100679.03
2023-02-11T12:22:56.105Z,100664.84
2023-02-11T12:25:29.439Z,100666.53
2023-02-11T12:28:08.686Z,100663.25
2023-02-11T12:30:51.157Z,100663.81
2023-02-11T12:33:32.801Z,100677.06
2023-02-11T12:36:08.165Z,100670.38
2023-02-11T12:39:01.438Z,100658.72
2023-02-11T12:42:01.710Z,100672.25
2023-02-11T12:44:41.858Z,100671.41
2023-02-11T12:47:18.794Z,100665.94
2023-02-11T12:50:02.406Z,100661.75
2023-02-11T12:52:46.601Z,100662.56
2023-02-11T12:55:21.065Z,100667.38
2023-02-11T12:57:51.573Z,100655.63
2023-02-11T13:00:22.315Z,100668.59
2023-02-11T13:02:57.575Z,100657.97
2023-02-11T13:05:30.339Z,100648.09
2023-02-11T13:08:05.960Z,100647.91
2023-02-11T13:10:37.858Z,100655.94
2023-02-11T13:13:18.187Z,100645.84
2023-02-11T13:15:51.320Z,100653.13
2023-02-11T13:18:30.154Z,100632.91
2023-02-11T13:21:08.821Z,100652.94
2023-02-11T13:23:45.831Z,100641.72
2023-02-11T13:26:21.653Z,100651.00
2023-02-11T13:28:56.280Z,100644.91
2023-02-11T13:31:27.603Z,100644.84
2023-02-11T13:33:55.728Z,100642.91
2023-02-11T13:36:26.209Z,100622.34
2023-02-11T13:38:57.895Z,100631.34
2023-02-11T13:41:33.136Z,100637.56
2023-02-11T13:44:19.301Z,100639.25
2023-02-11T13:46:59.281Z,100625.81
2023-02-11T13:49:32.768Z,100632.75
2023-02-11T13:52:04.156Z,100627.28
2023-02-11T13:54:35.656Z,100630.31
2023-02-11T13:57:31.914Z,100635.63
2023-02-11T14:00:01.064Z,100607.22
2023-02-11T14:02:55.232Z,100629.50
2023-02-11T14:05:50.357Z,100624.81
2023-02-11T14:08:50.388Z,100623.44
2023-02-11T14:11:48.335Z,100620.31
2023-02-11T14:14:29.146Z,100605.25
2023-02-11T14:17:32.073Z,100593.66
2023-02-11T14:20:02.273Z,100593.56
2023-02-11T14:22:33.028Z,100600.78
2023-02-11T14:25:02.250Z,100597.88
2023-02-11T14:27:34.747Z,100596.94
2023-02-11T14:30:27.759Z,100593.06
2023-02-11T14:33:31.628Z,100600.94
2023-02-11T14:36:11.841Z,100587.88
2023-02-11T14:38:49.555Z,100597.13
2023-02-11T14:41:23.532Z,100594.91
2023-02-11T14:43:54.159Z,100585.00
2023-02-11T14:46:24.811Z,100575.59
2023-02-11T14:48:56.287Z,100577.88
2023-02-11T14:51:27.448Z,100564.06
2023-02-11T14:54:00.719Z,100573.66
2023-02-11T14:56:31.624Z,100572.06
2023-02-11T14:58:59.784Z,100578.53
2023-02-11T15:01:32.831Z,100575.25
2023-02-11T15:04:02.868Z,100581.03
2023-02-11T15:06:33.154Z,100584.88
2023-02-11T15:09:06.356Z,100589.78
2023-02-11T15:11:40.291Z,100594.31
2023-02-11T15:14:11.682Z,100591.09
2023-02-11T15:16:45.963Z,100599.75
2023-02-11T15:19:22.919Z,100583.31
2023-02-11T15:21:52.032Z,100600.13
2023-02-11T15:24:26.938Z,100605.94
2023-02-11T15:26:59.453Z,100590.09
2023-02-11T15:29:27.905Z,100590.97
2023-02-11T15:32:15.401Z,100611.47
2023-02-11T15:34:44.088Z,100614.56
2023-02-11T15:37:15.261Z,100601.19
2023-02-11T15:39:43.830Z,100598.97
2023-02-11T15:42:19.903Z,100606.09
2023-02-11T15:44:54.324Z,100605.78
2023-02-11T15:47:26.041Z,100605.88
2023-02-11T15:49:54.050Z,100576.94
2023-02-11T15:52:27.631Z,100598.91
2023-02-11T15:55:00.734Z,100611.44
2023-02-11T15:57:28.982Z,100602.22
2023-02-11T15:59:57.555Z,100598.75
2023-02-11T16:02:32.603Z,100596.94
2023-02-11T16:05:02.651Z,100592.44
2023-02-11T16:07:42.735Z,100593.75
2023-02-11T16:10:30.185Z,100599.31
2023-02-11T16:13:05.713Z,100588.72
2023-02-11T16:15:45.958Z,100587.00
2023-02-11T16:18:37.904Z,100592.44
2023-02-11T16:21:08.964Z,100598.72
2023-02-11T16:23:39.174Z,100594.22
2023-02-11T16:26:11.398Z,100581.59
2023-02-11T16:28:40.748Z,100600.41
2023-02-11T16:31:09.913Z,100602.59
2023-02-11T16:33:39.330Z,100591.75
2023-02-11T16:36:13.340Z,100604.09
2023-02-11T16:38:41.676Z,100597.53
2023-02-11T16:41:11.924Z,100606.66
2023-02-11T16:43:40.291Z,100598.28
2023-02-11T16:46:09.453Z,100611.50
2023-02-11T16:48:38.862Z,100624.22
2023-02-11T16:51:09.833Z,100621.00
2023-02-11T16:53:37.836Z,100629.16
2023-02-11T16:56:06.364Z,100624.25
2023-02-11T16:58:34.370Z,100636.22
2023-02-11T17:01:02.540Z,100638.38
2023-02-11T17:03:35.694Z,100648.00
2023-02-11T17:06:05.835Z,100655.00
2023-02-11T17:08:35.741Z,100649.81
2023-02-11T17:11:04.538Z,100655.94
2023-02-11T17:13:32.812Z,100651.03
2023-02-11T17:16:00.816Z,100655.44
2023-02-11T17:18:29.416Z,100652.81
2023-02-11T17:20:57.418Z,100662.47
2023-02-11T17:23:25.399Z,100659.00
2023-02-11T17:25:58.338Z,100662.00
2023-02-11T17:28:26.372Z,100657.69
2023-02-11T17:30:54.423Z,100665.50
2023-02-11T17:33:22.533Z,100655.78
2023-02-11T17:35:50.905Z,100662.88
2023-02-11T17:38:19.174Z,100662.13
2023-02-11T17:40:47.121Z,100656.97
2023-02-11T17:43:16.957Z,100657.13
2023-02-11T17:45:44.980Z,100657.22
2023-02-11T17:48:13.027Z,100655.53
2023-02-11T17:50:41.005Z,100663.34
2023-02-11T17:53:08.985Z,100659.97
2023-02-11T17:55:38.568Z,100671.28
2023-02-11T17:58:07.072Z,100667.06
2023-02-11T18:00:36.422Z,100670.56
2023-02-11T18:03:04.560Z,100670.56
2023-02-11T18:05:35.585Z,100673.16
2023-02-11T18:08:04.250Z,100668.91
2023-02-11T18:10:33.625Z,100663.53
2023-02-11T18:13:02.258Z,100666.09
2023-02-11T18:15:30.269Z,100675.00
2023-02-11T18:17:59.672Z,100663.78
2023-02-11T18:20:27.678Z,100672.50
2023-02-11T18:22:55.685Z,100670.78
2023-02-11T18:25:23.741Z,100668.28
2023-02-11T18:27:51.720Z,100662.06
2023-02-11T18:30:21.267Z,100666.44
2023-02-11T18:32:50.874Z,100664.84
2023-02-11T18:35:20.367Z,100671.81
2023-02-11T18:37:48.483Z,100661.44
2023-02-11T18:40:16.920Z,100676.25
2023-02-11T18:42:46.883Z,100666.63
2023-02-11T18:45:15.720Z,100660.47
2023-02-11T18:47:43.889Z,100675.34
2023-02-11T18:50:13.988Z,100673.63
2023-02-11T18:52:43.754Z,100672.84
2023-02-11T18:55:11.734Z,100673.78
2023-02-11T18:57:39.776Z,100677.22
2023-02-11T19:00:10.171Z,100677.28
2023-02-11T19:02:38.200Z,100676.47
2023-02-11T19:05:06.966Z,100684.50
2023-02-11T19:07:34.990Z,100683.69
2023-02-11T19:10:05.249Z,100684.72
2023-02-11T19:12:34.065Z,100688.09
2023-02-11T19:15:02.124Z,100678.59
2023-02-11T19:17:30.162Z,100704.72
2023-02-11T19:19:58.147Z,100703.91
2023-02-11T19:22:26.151Z,100712.69
2023-02-11T19:24:54.109Z,100710.03
2023-02-11T19:27:23.494Z,100704.72
2023-02-11T19:29:51.473Z,100710.94
2023-02-11T19:32:19.543Z,100710.94
2023-02-11T19:34:47.509Z,100715.50
2023-02-11T19:37:15.523Z,100712.00
2023-02-11T19:39:44.383Z,100724.34
2023-02-11T19:42:12.787Z,100728.63
2023-02-11T19:44:42.255Z,100719.06
2023-02-11T19:47:10.836Z,100731.16
2023-02-11T19:49:38.786Z,100713.81
2023-02-11T19:52:06.783Z,100724.22
2023-02-11T19:54:34.837Z,100723.38
2023-02-11T19:57:02.858Z,100718.16
2023-02-11T19:59:30.825Z,100725.97
2023-02-11T20:02:01.627Z,100709.50
2023-02-11T20:04:32.198Z,100715.59
2023-02-11T20:07:00.309Z,100713.06
2023-02-11T20:09:29.139Z,100716.50
2023-02-11T20:11:57.134Z,100723.47
2023-02-11T20:14:27.562Z,100709.66
2023-02-11T20:16:55.988Z,100716.59
2023-02-11T20:19:25.355Z,100713.13
2023-02-11T20:21:56.052Z,100717.53
2023-02-11T20:24:25.773Z,100694.09
2023-02-11T20:26:56.116Z,100714.09
2023-02-11T20:29:25.386Z,100713.34
2023-02-11T20:31:53.600Z,100695.03
2023-02-11T20:34:22.122Z,100701.03
2023-02-11T20:36:52.954Z,100701.03
2023-02-11T20:39:22.904Z,100698.38
2023-02-11T20:41:51.619Z,100703.63
2023-02-11T20:44:21.508Z,100699.34
2023-02-11T20:46:49.823Z,100691.53
2023-02-11T20:49:19.667Z,100696.69
2023-02-11T20:51:48.040Z,100700.19
2023-02-11T20:54:20.146Z,100702.84
2023-02-11T20:56:48.696Z,100715.97
2023-02-11T20:59:17.689Z,100702.06
2023-02-11T21:01:48.732Z,100696.88
2023-02-11T21:04:18.635Z,100718.72
2023-02-11T21:06:48.450Z,100720.47
2023-02-11T21:09:20.844Z,100718.75
2023-02-11T21:11:49.106Z,100730.97
2023-02-11T21:14:18.195Z,100734.44
2023-02-11T21:16:46.650Z,100725.75
2023-02-11T21:19:14.663Z,100736.19
2023-02-11T21:21:43.185Z,100739.69
2023-02-11T21:24:12.201Z,100744.00
2023-02-11T21:26:41.667Z,100749.25
2023-02-11T21:29:11.739Z,100734.44
2023-02-11T21:31:40.244Z,100748.38
2023-02-11T21:34:08.729Z,100751.84
2023-02-11T21:36:36.787Z,100750.97
2023-02-11T21:39:06.043Z,100739.66
2023-02-11T21:41:34.212Z,100737.94
2023-02-11T21:44:05.867Z,100736.19
2023-02-11T21:46:33.931Z,100741.34
2023-02-11T21:49:01.959Z,100731.78
2023-02-11T21:51:30.016Z,100743.09
2023-02-11T21:54:01.218Z,100747.50
2023-02-11T21:56:30.330Z,100735.34
2023-02-11T21:58:59.761Z,100743.19
2023-02-11T22:01:31.213Z,100746.69
2023-02-11T22:03:59.469Z,100745.81
2023-02-11T22:06:31.163Z,100761.47
2023-02-11T22:09:00.173Z,100751.06
2023-02-11T22:11:28.211Z,100751.94
2023-02-11T22:13:56.585Z,100751.03
2023-02-11T22:16:25.429Z,100739.75
2023-02-11T22:18:55.203Z,100755.41
2023-02-11T22:21:24.160Z,100760.63
2023-02-11T22:23:52.755Z,100756.28
2023-02-11T22:26:22.914Z,100750.19
2023-02-11T22:28:51.970Z,100748.47
2023-02-11T22:31:22.584Z,100750.22
2023-02-11T22:33:51.009Z,100757.19
2023-02-11T22:36:22.288Z,100757.19
2023-02-11T22:38:50.603Z,100758.94
2023-02-11T22:41:19.562Z,100756.31
2023-02-11T22:43:48.014Z,100747.63
2023-02-11T22:46:18.321Z,100740.63
2023-02-11T22:48:46.579Z,100742.38
2023-02-11T22:51:17.520Z,100740.63
2023-02-11T22:53:50.592Z,100746.72
2023-02-11T22:56:19.117Z,100751.94
2023-02-11T22:58:47.277Z,100754.56
2023-02-11T23:01:15.693Z,100760.69
2023-02-11T23:03:44.049Z,100755.44
2023-02-11T23:06:12.647Z,100752.81
2023-02-11T23:08:41.427Z,100754.56
2023-02-11T23:11:13.067Z,100753.69
2023-02-11T23:13:42.860Z,100754.56
2023-02-11T23:16:12.891Z,100743.25
2023-02-11T23:18:42.984Z,100752.81
2023-02-11T23:21:13.666Z,100745.00
2023-02-11T23:23:41.662Z,100751.97
2023-02-11T23:26:13.420Z,100758.06
2023-02-11T23:28:45.966Z,100764.13
2023-02-11T23:31:16.393Z,100758.91
2023-02-11T23:33:44.439Z,100764.13
2023-02-11T23:36:12.613Z,100760.66
2023-02-11T23:38:40.673Z,100759.78
2023-02-11T23:41:09.009Z,100758.88
2023-02-11T23:43:38.538Z,100751.06
2023-02-11T23:46:07.622Z,100748.47
2023-02-11T23:48:37.950Z,100756.31
2023-02-11T23:51:06.605Z,100758.91
2023-02-11T23:53:34.621Z,100751.94
2023-02-11T23:56:02.610Z,100732.78
2023-02-11T23:58:30.904Z,100747.59
